Time;durP1;ratioP1;P1;durP2;ratioP2;P2;SDS_P1;SDS_P2;PMS_P1;PMS_P2;Temp;Humidity;BMP_temperature;BMP_pressure;BME280_temperature;BME280_humidity;BME280_pressure;Samples;Min_cycle;Max_cycle;Signal;HPM_P1;HPM_P2
2022/04/16 00:00:50;;;;;;;;;;;6.70;99.90;;;;;;5116644;28;19980;-49
2022/04/16 00:03:16;;;;;;;;;;;6.70;99.90;;;;;;5116563;28;19976;-47
2022/04/16 00:05:42;;;;;;;;;;;6.70;99.90;;;;;;5116881;28;20404;-48
2022/04/16 00:08:07;;;;;;;;;;;6.70;99.90;;;;;;5116647;28;19931;-48
2022/04/16 00:10:33;;;;;;;;;;;6.60;99.90;;;;;;5116554;28;19924;-49
2022/04/16 00:12:59;;;;;;;;;;;6.60;99.90;;;;;;5116596;28;19927;-47
2022/04/16 00:15:26;;;;;;;;;;;6.60;99.90;;;;;;5116300;28;19928;-51
2022/04/16 00:17:52;;;;;;;;;;;6.60;99.90;;;;;;5116458;28;19942;-51
2022/04/16 00:20:18;;;;;;;;;;;6.60;99.90;;;;;;5116468;28;19924;-49
2022/04/16 00:22:43;;;;;;;;;;;6.60;99.90;;;;;;5116448;27;20646;-50
2022/04/16 00:25:09;;;;;;;;;;;6.50;99.90;;;;;;5116187;28;19959;-50
2022/04/16 00:27:34;;;;;;;;;;;6.50;99.90;;;;;;5115013;28;19973;-47
2022/04/16 00:30:01;;;;;;;;;;;6.50;99.90;;;;;;5115037;28;19928;-47
2022/04/16 00:32:27;;;;;;;;;;;6.60;99.90;;;;;;5116512;28;19931;-47
2022/04/16 00:34:53;;;;;;;;;;;6.50;99.90;;;;;;5116157;28;19928;-48
2022/04/16 00:37:18;;;;;;;;;;;6.50;99.90;;;;;;5116152;28;19924;-48
2022/04/16 00:39:43;;;;;;;;;;;6.50;99.90;;;;;;5114876;28;20400;-46
2022/04/16 00:42:09;;;;;;;;;;;6.40;99.90;;;;;;5115763;28;19977;-46
2022/04/16 00:44:34;;;;;;;;;;;6.40;99.90;;;;;;5115768;28;19975;-48
2022/04/16 00:47:00;;;;;;;;;;;6.40;99.90;;;;;;5115562;28;19924;-46
2022/04/16 00:49:25;;;;;;;;;;;6.40;99.90;;;;;;5115893;28;19923;-46
2022/04/16 00:51:51;;;;;;;;;;;6.40;99.90;;;;;;5115754;28;19924;-46
2022/04/16 00:54:18;;;;;;;;;;;6.40;99.90;;;;;;5115796;28;20061;-47
2022/04/16 00:56:44;;;;;;;;;;;6.30;99.90;;;;;;5115733;28;19923;-47
2022/04/16 00:59:10;;;;;;;;;;;6.40;99.90;;;;;;5115525;28;20415;-51
2022/04/16 01:01:35;;;;;;;;;;;6.30;99.90;;;;;;5115781;28;20022;-47
2022/04/16 01:04:01;;;;;;;;;;;6.30;99.90;;;;;;5115646;28;20018;-46
2022/04/16 01:06:39;;;;;;;;;;;6.30;99.90;;;;;;5115517;28;19924;-46
2022/04/16 01:09:05;;;;;;;;;;;6.30;99.90;;;;;;5115378;27;19947;-47
2022/04/16 01:11:32;;;;;;;;;;;6.30;99.90;;;;;;5115331;28;20295;-46
2022/04/16 01:13:58;;;;;;;;;;;6.30;99.90;;;;;;5115347;28;19923;-48
2022/04/16 01:16:24;;;;;;;;;;;6.40;99.90;;;;;;5115303;27;19923;-46
2022/04/16 01:18:50;;;;;;;;;;;6.40;99.90;;;;;;5115193;28;19969;-46
2022/04/16 01:21:15;;;;;;;;;;;6.50;99.90;;;;;;5113866;28;19924;-46
2022/04/16 01:23:41;;;;;;;;;;;6.50;99.90;;;;;;5115738;28;20389;-47
2022/04/16 01:26:06;;;;;;;;;;;6.50;99.90;;;;;;5115073;28;19923;-48
2022/04/16 01:28:32;;;;;;;;;;;6.50;99.90;;;;;;5115151;28;20670;-46
2022/04/16 01:30:58;;;;;;;;;;;6.50;99.90;;;;;;5115106;28;19924;-47
2022/04/16 01:33:23;;;;;;;;;;;6.40;99.90;;;;;;5114983;28;19969;-46
2022/04/16 01:35:51;;;;;;;;;;;6.40;99.90;;;;;;5115180;28;19931;-47
2022/04/16 01:38:16;;;;;;;;;;;6.30;99.90;;;;;;5113696;28;20027;-46
2022/04/16 01:40:42;;;;;;;;;;;6.30;99.90;;;;;;5114695;28;20292;-46
2022/04/16 01:43:07;;;;;;;;;;;6.30;99.90;;;;;;5114932;28;19923;-46
2022/04/16 01:45:33;;;;;;;;;;;6.30;99.90;;;;;;5114843;28;19923;-47
2022/04/16 01:47:59;;;;;;;;;;;6.30;99.90;;;;;;5114723;28;19927;-47
2022/04/16 01:50:24;;;;;;;;;;;6.30;99.90;;;;;;5114906;28;19924;-46
2022/04/16 01:52:52;;;;;;;;;;;6.30;99.90;;;;;;5114662;28;20397;-47
2022/04/16 01:55:17;;;;;;;;;;;6.30;99.90;;;;;;5114279;28;20015;-46
2022/04/16 01:57:43;;;;;;;;;;;6.20;99.90;;;;;;5114358;28;20014;-46
2022/04/16 02:00:14;;;;;;;;;;;6.20;99.90;;;;;;5113605;28;19938;-46
2022/04/16 02:02:40;;;;;;;;;;;6.20;99.90;;;;;;5114794;28;19924;-47
2022/04/16 02:05:06;;;;;;;;;;;6.20;99.90;;;;;;5113263;28;19923;-46
2022/04/16 02:07:31;;;;;;;;;;;6.20;99.90;;;;;;5114137;28;19942;-47
2022/04/16 02:09:57;;;;;;;;;;;6.20;99.90;;;;;;5114128;28;20022;-46
2022/04/16 02:12:22;;;;;;;;;;;6.20;99.90;;;;;;5114293;28;19935;-47
2022/04/16 02:14:48;;;;;;;;;;;6.10;99.90;;;;;;5113756;28;20007;-47
2022/04/16 02:17:13;;;;;;;;;;;6.10;99.90;;;;;;5114163;28;19924;-46
2022/04/16 02:19:39;;;;;;;;;;;6.10;99.90;;;;;;5113833;28;19930;-47
2022/04/16 02:22:05;;;;;;;;;;;6.10;99.90;;;;;;5114274;28;19924;-46
2022/04/16 02:24:30;;;;;;;;;;;6.10;99.90;;;;;;5113782;28;20003;-46
2022/04/16 02:26:59;;;;;;;;;;;6.10;99.90;;;;;;5113752;28;20323;-47
2022/04/16 02:29:25;;;;;;;;;;;6.10;99.90;;;;;;5113947;28;19934;-47
2022/04/16 02:31:50;;;;;;;;;;;6.00;99.90;;;;;;5114182;28;19923;-47
2022/04/16 02:34:16;;;;;;;;;;;6.10;99.90;;;;;;5113686;28;19976;-46
2022/04/16 02:36:43;;;;;;;;;;;6.00;99.90;;;;;;5113702;28;19924;-47
2022/04/16 02:39:08;;;;;;;;;;;6.00;99.90;;;;;;5113506;28;19924;-47
2022/04/16 02:41:34;;;;;;;;;;;6.00;99.90;;;;;;5113718;28;20438;-48
2022/04/16 02:43:59;;;;;;;;;;;6.00;99.90;;;;;;5113917;28;19928;-47
2022/04/16 02:49:09;;;;;;;;;;;6.00;99.90;;;;;;5113496;28;19932;-46
2022/04/16 02:51:35;;;;;;;;;;;6.00;99.90;;;;;;5113122;28;20297;-48
2022/04/16 02:54:01;;;;;;;;;;;6.00;99.90;;;;;;5112420;28;19923;-46
2022/04/16 02:56:26;;;;;;;;;;;6.00;99.90;;;;;;5113460;28;19932;-47
2022/04/16 02:58:52;;;;;;;;;;;6.00;99.90;;;;;;5111969;28;19930;-47
2022/04/16 03:01:17;;;;;;;;;;;6.00;99.90;;;;;;5113215;28;19924;-47
2022/04/16 03:03:43;;;;;;;;;;;6.00;99.90;;;;;;5113352;28;19985;-47
2022/04/16 03:06:08;;;;;;;;;;;6.10;99.90;;;;;;5111834;28;19931;-46
2022/04/16 03:08:34;;;;;;;;;;;6.10;99.90;;;;;;5113605;28;19928;-46
2022/04/16 03:11:00;;;;;;;;;;;6.10;99.90;;;;;;5113089;28;20065;-47
2022/04/16 03:13:26;;;;;;;;;;;6.20;99.90;;;;;;5113435;28;20037;-46
2022/04/16 03:18:35;;;;;;;;;;;6.30;99.90;;;;;;5113104;28;19930;-46
2022/04/16 03:21:01;;;;;;;;;;;6.30;99.90;;;;;;5113219;28;19924;-46
2022/04/16 03:23:28;;;;;;;;;;;6.40;99.90;;;;;;5113153;28;19924;-48
2022/04/16 03:25:53;;;;;;;;;;;6.50;99.90;;;;;;5112922;28;20442;-46
2022/04/16 03:28:19;;;;;;;;;;;6.50;99.90;;;;;;5112873;28;19923;-46
2022/04/16 03:30:45;;;;;;;;;;;6.60;99.90;;;;;;5112988;28;19924;-49
2022/04/16 03:33:11;;;;;;;;;;;6.60;99.90;;;;;;5111530;28;20396;-47
2022/04/16 03:35:36;;;;;;;;;;;6.70;99.90;;;;;;5113010;28;19923;-46
2022/04/16 03:38:02;;;;;;;;;;;6.70;99.90;;;;;;5113019;28;19923;-46
2022/04/16 03:40:28;;;;;;;;;;;6.80;99.90;;;;;;5113145;28;20335;-46
2022/04/16 03:42:56;;;;;;;;;;;6.80;99.90;;;;;;5112918;28;19924;-48
2022/04/16 03:45:24;;;;;;;;;;;6.80;99.90;;;;;;5112826;28;19930;-50
2022/04/16 03:47:50;;;;;;;;;;;6.90;99.90;;;;;;5112831;28;19950;-47
2022/04/16 03:50:16;;;;;;;;;;;6.90;99.90;;;;;;5113018;28;19923;-47
2022/04/16 03:52:42;;;;;;;;;;;6.90;99.90;;;;;;5112602;28;20353;-50
2022/04/16 04:00:41;;;;;;;;;;;7.00;99.90;;;;;;5113022;28;19944;-47
2022/04/16 04:03:07;;;;;;;;;;;7.00;99.90;;;;;;5112741;28;19925;-48
2022/04/16 04:05:32;;;;;;;;;;;7.10;99.90;;;;;;5112573;28;19931;-50
2022/04/16 04:07:58;;;;;;;;;;;7.10;99.90;;;;;;5112724;28;19930;-47
2022/04/16 04:10:23;;;;;;;;;;;7.10;99.90;;;;;;5112963;28;20396;-46
2022/04/16 04:12:48;;;;;;;;;;;7.10;99.90;;;;;;5112595;28;19946;-49
2022/04/16 04:15:14;;;;;;;;;;;7.20;99.90;;;;;;5112467;28;19930;-47
2022/04/16 04:17:39;;;;;;;;;;;7.20;99.90;;;;;;5112815;28;20289;-49
2022/04/16 04:20:05;;;;;;;;;;;7.20;99.90;;;;;;5112735;28;19927;-47
2022/04/16 04:22:31;;;;;;;;;;;7.30;99.90;;;;;;5112679;28;19924;-47
2022/04/16 04:24:56;;;;;;;;;;;7.30;99.90;;;;;;5116867;28;20301;-46
2022/04/16 04:27:22;;;;;;;;;;;7.40;99.90;;;;;;5116117;28;19930;-47
2022/04/16 04:29:47;;;;;;;;;;;7.40;99.90;;;;;;5116345;28;19930;-48
2022/04/16 04:32:13;;;;;;;;;;;7.50;99.90;;;;;;5114824;28;20267;-48
2022/04/16 04:34:38;;;;;;;;;;;7.50;99.90;;;;;;5115989;28;19924;-48
2022/04/16 04:37:04;;;;;;;;;;;7.50;99.90;;;;;;5116199;28;19923;-46
2022/04/16 04:39:29;;;;;;;;;;;7.60;99.90;;;;;;5114671;28;19923;-47
2022/04/16 04:41:55;;;;;;;;;;;7.60;99.90;;;;;;5115946;28;19923;-51
2022/04/16 04:44:20;;;;;;;;;;;7.60;99.90;;;;;;5116019;28;19924;-48
2022/04/16 04:46:46;;;;;;;;;;;7.60;99.90;;;;;;5114773;28;19924;-50
2022/04/16 04:49:11;;;;;;;;;;;7.60;99.90;;;;;;5114627;28;19930;-50
2022/04/16 04:51:38;;;;;;;;;;;7.60;99.90;;;;;;5115731;28;19969;-48
2022/04/16 04:54:03;;;;;;;;;;;7.70;99.90;;;;;;5115712;28;19923;-48
2022/04/16 04:56:29;;;;;;;;;;;7.70;99.90;;;;;;5115582;28;19947;-48
2022/04/16 04:58:55;;;;;;;;;;;7.70;99.90;;;;;;5115909;28;19937;-49
2022/04/16 05:01:20;;;;;;;;;;;7.70;99.90;;;;;;5114410;28;19930;-48
2022/04/16 05:03:46;;;;;;;;;;;7.70;99.90;;;;;;5114207;28;19924;-50
2022/04/16 05:06:11;;;;;;;;;;;7.70;99.90;;;;;;5115733;28;19985;-47
2022/04/16 05:08:37;;;;;;;;;;;7.70;99.90;;;;;;5115502;28;19923;-48
2022/04/16 05:11:02;;;;;;;;;;;7.80;99.90;;;;;;5115407;28;19924;-49
2022/04/16 05:13:28;;;;;;;;;;;7.80;99.90;;;;;;5115629;28;20275;-47
2022/04/16 05:15:53;;;;;;;;;;;7.80;99.90;;;;;;5115068;28;19924;-48
2022/04/16 05:18:18;;;;;;;;;;;7.80;99.90;;;;;;5115325;28;19931;-49
2022/04/16 05:20:44;;;;;;;;;;;7.90;99.90;;;;;;5114081;28;19924;-49
2022/04/16 05:23:09;;;;;;;;;;;7.90;99.90;;;;;;5115150;28;19947;-47
2022/04/16 05:25:35;;;;;;;;;;;8.00;99.90;;;;;;5115103;28;19923;-48
2022/04/16 05:28:00;;;;;;;;;;;8.10;99.90;;;;;;5114957;28;19967;-49
2022/04/16 05:30:33;;;;;;;;;;;8.20;99.90;;;;;;5115119;28;19924;-47
2022/04/16 05:33:05;;;;;;;;;;;8.30;99.90;;;;;;5115233;27;19928;-47
2022/04/16 05:35:31;;;;;;;;;;;8.30;99.90;;;;;;5114976;28;20014;-47
2022/04/16 05:37:56;;;;;;;;;;;8.20;99.90;;;;;;5114954;28;19959;-47
2022/04/16 05:40:22;;;;;;;;;;;8.20;99.90;;;;;;5114545;28;20270;-48
2022/04/16 05:42:47;;;;;;;;;;;8.30;99.90;;;;;;5114938;28;19927;-47
2022/04/16 05:45:14;;;;;;;;;;;8.20;99.90;;;;;;5113587;28;19927;-47
2022/04/16 05:47:41;;;;;;;;;;;8.30;99.90;;;;;;5113605;28;20023;-47
2022/04/16 05:50:07;;;;;;;;;;;8.90;99.90;;;;;;5114574;28;20385;-47
2022/04/16 05:52:32;;;;;;;;;;;9.70;99.90;;;;;;5114506;28;19928;-46
2022/04/16 05:54:58;;;;;;;;;;;10.40;99.90;;;;;;5114396;28;19924;-48
2022/04/16 05:57:25;;;;;;;;;;;11.00;99.90;;;;;;5114361;28;19984;-47
2022/04/16 05:59:51;;;;;;;;;;;11.60;99.90;;;;;;5114640;28;19927;-47
2022/04/16 06:02:16;;;;;;;;;;;12.00;99.90;;;;;;5114504;28;20120;-48
2022/04/16 06:04:42;;;;;;;;;;;12.10;99.90;;;;;;5114353;28;19923;-48
2022/04/16 06:07:07;;;;;;;;;;;12.00;99.90;;;;;;5114264;28;19924;-47
2022/04/16 06:09:33;;;;;;;;;;;12.30;99.90;;;;;;5114166;28;19924;-48
2022/04/16 06:12:03;;;;;;;;;;;12.60;99.90;;;;;;5114403;28;20391;-48
2022/04/16 06:14:29;;;;;;;;;;;12.80;99.90;;;;;;5112620;28;19932;-48
2022/04/16 06:16:55;;;;;;;;;;;13.10;99.90;;;;;;5114263;28;19928;-48
2022/04/16 06:19:20;;;;;;;;;;;13.30;99.90;;;;;;5114050;28;19938;-49
2022/04/16 06:21:46;;;;;;;;;;;13.30;99.90;;;;;;5113768;28;19981;-49
2022/04/16 06:24:11;;;;;;;;;;;13.80;99.90;;;;;;5114154;28;19924;-48
2022/04/16 06:26:37;;;;;;;;;;;13.50;99.90;;;;;;5114015;28;20409;-48
2022/04/16 06:29:02;;;;;;;;;;;13.30;99.90;;;;;;5113826;28;19930;-48
2022/04/16 06:31:28;;;;;;;;;;;13.50;99.90;;;;;;5113951;28;19930;-47
2022/04/16 06:33:53;;;;;;;;;;;13.40;99.90;;;;;;5113759;28;20007;-47
2022/04/16 06:36:18;;;;;;;;;;;13.40;99.90;;;;;;5113979;28;19928;-48
2022/04/16 06:38:44;;;;;;;;;;;13.60;99.90;;;;;;5113562;28;19927;-47
2022/04/16 06:41:09;;;;;;;;;;;13.10;99.90;;;;;;5113891;28;19984;-50
2022/04/16 06:43:35;;;;;;;;;;;13.00;99.90;;;;;;5113746;28;20002;-48
2022/04/16 06:46:00;;;;;;;;;;;13.20;99.90;;;;;;5113261;28;20118;-47
2022/04/16 06:48:26;;;;;;;;;;;13.70;99.90;;;;;;5112425;28;19924;-49
2022/04/16 06:50:51;;;;;;;;;;;13.50;99.90;;;;;;5113536;28;19987;-47
2022/04/16 06:53:17;;;;;;;;;;;13.40;99.90;;;;;;5113154;28;20015;-48
2022/04/16 06:55:43;;;;;;;;;;;13.20;99.90;;;;;;5113570;28;19931;-47
2022/04/16 06:58:09;;;;;;;;;;;13.50;99.90;;;;;;5113611;28;19924;-50
2022/04/16 07:00:34;;;;;;;;;;;13.40;99.90;;;;;;5113621;28;19923;-48
2022/04/16 07:03:00;;;;;;;;;;;13.10;99.90;;;;;;5112100;28;19923;-47
2022/04/16 07:05:25;;;;;;;;;;;13.40;99.90;;;;;;5113265;28;19925;-48
2022/04/16 07:07:50;;;;;;;;;;;13.70;99.90;;;;;;5112031;28;19977;-48
2022/04/16 07:10:16;;;;;;;;;;;13.30;99.90;;;;;;5113346;28;19930;-47
2022/04/16 07:12:41;;;;;;;;;;;13.50;99.90;;;;;;5113321;28;19924;-48
2022/04/16 07:15:07;;;;;;;;;;;13.80;99.90;;;;;;5111679;28;20027;-48
2022/04/16 07:17:33;;;;;;;;;;;13.50;99.90;;;;;;5113205;28;19924;-49
2022/04/16 07:19:58;;;;;;;;;;;13.50;99.90;;;;;;5113174;28;19959;-48
2022/04/16 07:22:24;;;;;;;;;;;12.90;99.90;;;;;;5112999;28;19923;-50
2022/04/16 07:24:49;;;;;;;;;;;12.50;99.90;;;;;;5113006;28;19969;-49
2022/04/16 07:27:15;;;;;;;;;;;12.30;99.90;;;;;;5112063;28;19970;-51
2022/04/16 07:29:41;;;;;;;;;;;11.70;99.90;;;;;;5113196;28;20011;-48
2022/04/16 07:32:06;;;;;;;;;;;11.60;99.90;;;;;;5112868;28;19962;-49
2022/04/16 07:34:32;;;;;;;;;;;11.60;99.90;;;;;;5112931;28;19973;-47
2022/04/16 07:36:57;;;;;;;;;;;11.40;99.90;;;;;;5112971;28;19979;-48
2022/04/16 07:39:23;;;;;;;;;;;11.30;99.90;;;;;;5113090;28;19928;-47
2022/04/16 07:41:51;;;;;;;;;;;11.40;99.90;;;;;;5113126;28;19930;-48
2022/04/16 07:44:17;;;;;;;;;;;11.40;99.90;;;;;;5112989;28;19923;-46
2022/04/16 07:46:42;;;;;;;;;;;11.30;99.90;;;;;;5112885;28;19927;-48
2022/04/16 07:49:07;;;;;;;;;;;11.30;99.90;;;;;;5112739;28;20296;-48
2022/04/16 07:51:33;;;;;;;;;;;11.30;99.90;;;;;;5111109;28;19979;-48
2022/04/16 07:53:58;;;;;;;;;;;11.20;99.90;;;;;;5113043;28;19932;-48
2022/04/16 07:56:25;;;;;;;;;;;11.40;99.90;;;;;;5112690;28;19970;-47
2022/04/16 07:58:50;;;;;;;;;;;11.40;99.90;;;;;;5116465;28;19924;-48
2022/04/16 08:01:16;;;;;;;;;;;11.30;99.90;;;;;;5116639;28;20593;-48
2022/04/16 08:03:42;;;;;;;;;;;11.40;99.90;;;;;;5116765;28;19924;-50
2022/04/16 08:06:07;;;;;;;;;;;11.50;99.90;;;;;;5116440;28;19967;-49
2022/04/16 08:08:33;;;;;;;;;;;11.30;99.90;;;;;;5116753;28;19924;-48
2022/04/16 08:10:58;;;;;;;;;;;11.50;99.90;;;;;;5116577;28;19988;-48
2022/04/16 08:13:24;;;;;;;;;;;11.50;99.90;;;;;;5116448;28;19924;-48
2022/04/16 08:15:50;;;;;;;;;;;11.50;99.90;;;;;;5115015;28;19931;-48
2022/04/16 08:18:16;;;;;;;;;;;11.50;99.90;;;;;;5116517;28;19931;-48
2022/04/16 08:20:42;;;;;;;;;;;11.70;99.90;;;;;;5116556;28;19931;-50
2022/04/16 08:23:08;;;;;;;;;;;11.50;99.90;;;;;;5116671;28;19932;-47
2022/04/16 08:28:00;;;;;;;;;;;11.70;99.90;;;;;;5116377;28;20301;-47
2022/04/16 08:30:25;;;;;;;;;;;11.80;99.90;;;;;;5116662;28;19924;-48
2022/04/16 08:32:52;;;;;;;;;;;11.70;99.90;;;;;;5116256;27;20451;-50
2022/04/16 08:35:18;;;;;;;;;;;11.80;99.90;;;;;;5116058;28;19924;-51
2022/04/16 08:37:44;;;;;;;;;;;11.90;99.90;;;;;;5116230;28;19993;-47
2022/04/16 08:40:10;;;;;;;;;;;11.70;99.90;;;;;;5116148;28;20377;-48
2022/04/16 08:42:37;;;;;;;;;;;11.80;99.90;;;;;;5116351;28;19931;-52
2022/04/16 08:45:04;;;;;;;;;;;11.90;99.90;;;;;;5115969;28;19935;-47
2022/04/16 08:47:30;;;;;;;;;;;12.00;99.90;;;;;;5114606;28;19924;-49
2022/04/16 08:49:55;;;;;;;;;;;11.90;99.90;;;;;;5116071;28;20007;-47
2022/04/16 08:52:22;;;;;;;;;;;11.90;99.90;;;;;;5115861;27;19924;-48
2022/04/16 08:54:48;;;;;;;;;;;12.00;99.90;;;;;;5115913;28;19924;-48
2022/04/16 08:57:13;;;;;;;;;;;11.90;99.90;;;;;;5115660;28;20400;-48
2022/04/16 08:59:39;;;;;;;;;;;12.00;99.90;;;;;;5116081;28;20299;-49
2022/04/16 09:02:05;;;;;;;;;;;12.20;99.90;;;;;;5115563;27;19924;-51
2022/04/16 09:04:33;;;;;;;;;;;12.20;99.90;;;;;;5115440;28;19924;-49
2022/04/16 09:07:00;;;;;;;;;;;12.00;99.90;;;;;;5114282;28;19923;-51
2022/04/16 09:09:25;;;;;;;;;;;12.00;99.90;;;;;;5114047;28;19999;-48
2022/04/16 09:11:51;;;;;;;;;;;11.90;99.10;;;;;;5115429;27;19930;-51
2022/04/16 09:14:17;;;;;;;;;;;12.10;99.80;;;;;;5115093;28;20429;-48
2022/04/16 09:16:42;;;;;;;;;;;12.10;96.30;;;;;;5114083;28;19931;-47
2022/04/16 09:19:12;;;;;;;;;;;12.00;95.40;;;;;;5113768;28;19924;-51
2022/04/16 09:21:38;;;;;;;;;;;12.30;96.90;;;;;;5115477;28;19919;-48
2022/04/16 09:24:04;;;;;;;;;;;12.20;95.70;;;;;;5115135;28;20019;-48
2022/04/16 09:26:32;;;;;;;;;;;12.30;96.50;;;;;;5115121;28;19927;-51
2022/04/16 09:29:14;;;;;;;;;;;12.40;94.20;;;;;;5115069;28;19930;-49
2022/04/16 09:31:41;;;;;;;;;;;12.50;93.40;;;;;;5114028;28;20019;-49
2022/04/16 09:34:16;;;;;;;;;;;12.60;93.20;;;;;;5113810;28;19924;-50
2022/04/16 09:36:44;;;;;;;;;;;12.70;91.40;;;;;;5115065;28;20266;-52
2022/04/16 09:39:10;;;;;;;;;;;12.60;90.60;;;;;;5114848;28;19924;-47
2022/04/16 09:41:38;;;;;;;;;;;12.60;90.70;;;;;;5114802;28;20230;-50
2022/04/16 09:44:04;;;;;;;;;;;12.30;89.90;;;;;;5114756;28;19924;-49
2022/04/16 09:46:30;;;;;;;;;;;12.50;90.00;;;;;;5114973;28;20289;-48
2022/04/16 09:49:03;;;;;;;;;;;12.40;88.20;;;;;;5114933;28;19931;-47
2022/04/16 09:51:33;;;;;;;;;;;12.60;88.90;;;;;;5113212;28;19924;-48
2022/04/16 09:54:01;;;;;;;;;;;12.60;86.60;;;;;;5113448;28;19927;-50
2022/04/16 09:56:27;;;;;;;;;;;12.80;87.80;;;;;;5113115;28;19924;-51
2022/04/16 09:58:55;;;;;;;;;;;12.70;76.00;;;;;;5114373;28;20416;-49
2022/04/16 10:01:24;;;;;;;;;;;12.60;75.30;;;;;;5114565;28;19924;-48
2022/04/16 10:03:51;;;;;;;;;;;12.80;76.00;;;;;;5114625;28;19962;-48
2022/04/16 10:06:16;;;;;;;;;;;13.20;78.50;;;;;;5113493;28;19924;-51
2022/04/16 10:08:42;;;;;;;;;;;13.10;76.10;;;;;;5114415;28;19930;-51
2022/04/16 10:11:08;;;;;;;;;;;13.10;78.20;;;;;;5114232;28;19931;-51
2022/04/16 10:13:40;;;;;;;;;;;12.80;74.20;;;;;;5113004;28;19931;-48
2022/04/16 10:16:24;;;;;;;;;;;13.00;76.30;;;;;;5114284;28;19979;-47
2022/04/16 10:18:50;;;;;;;;;;;12.90;75.30;;;;;;5114094;28;19958;-47
2022/04/16 10:21:16;;;;;;;;;;;12.90;72.70;;;;;;5112127;28;19927;-51
2022/04/16 10:23:42;;;;;;;;;;;13.10;74.30;;;;;;5113930;28;19939;-48
2022/04/16 10:26:11;;;;;;;;;;;13.20;71.30;;;;;;5114110;28;19923;-47
2022/04/16 10:28:37;;;;;;;;;;;13.00;69.80;;;;;;5114026;28;19931;-47
2022/04/16 10:31:02;;;;;;;;;;;13.20;71.40;;;;;;5114053;28;19935;-49
2022/04/16 10:33:28;;;;;;;;;;;13.10;68.30;;;;;;5113958;28;19923;-50
2022/04/16 10:35:58;;;;;;;;;;;13.00;69.00;;;;;;5113650;28;19930;-48
2022/04/16 10:38:24;;;;;;;;;;;13.20;69.30;;;;;;5113945;28;19928;-48
2022/04/16 10:41:00;;;;;;;;;;;12.80;64.90;;;;;;5113913;28;20035;-49
2022/04/16 10:43:30;;;;;;;;;;;13.20;67.10;;;;;;5113777;28;19969;-49
2022/04/16 10:45:56;;;;;;;;;;;13.40;66.10;;;;;;5112352;28;19924;-49
2022/04/16 10:48:21;;;;;;;;;;;13.50;64.60;;;;;;5113528;28;20338;-48
2022/04/16 10:50:48;;;;;;;;;;;13.50;62.80;;;;;;5113436;28;19966;-49
2022/04/16 10:53:15;;;;;;;;;;;13.60;62.60;;;;;;5113629;28;19924;-49
2022/04/16 10:55:47;;;;;;;;;;;13.40;62.40;;;;;;5113533;28;19923;-48
2022/04/16 10:58:13;;;;;;;;;;;13.50;63.30;;;;;;5113910;28;19959;-49
2022/04/16 11:00:40;;;;;;;;;;;13.60;64.70;;;;;;5113596;28;20293;-50
2022/04/16 11:03:27;;;;;;;;;;;13.60;63.20;;;;;;5113591;28;20031;-49
2022/04/16 11:06:02;;;;;;;;;;;13.60;63.50;;;;;;5113864;28;19927;-48
2022/04/16 11:08:28;;;;;;;;;;;13.70;63.40;;;;;;5113490;28;19927;-47
2022/04/16 11:11:01;;;;;;;;;;;13.80;62.70;;;;;;5113451;28;20395;-48
2022/04/16 11:13:29;;;;;;;;;;;13.90;63.30;;;;;;5113275;28;20407;-48
2022/04/16 11:15:54;;;;;;;;;;;13.50;60.30;;;;;;5112963;28;19923;-50
2022/04/16 11:18:20;;;;;;;;;;;13.60;62.00;;;;;;5113361;28;19923;-48
2022/04/16 11:20:57;;;;;;;;;;;13.90;63.60;;;;;;5113141;28;19931;-48
2022/04/16 11:23:26;;;;;;;;;;;14.00;62.40;;;;;;5113183;28;19931;-48
2022/04/16 11:34:14;;;;;;;;;;;14.20;61.00;;;;;;5116364;28;20340;-49
2022/04/16 11:36:40;;;;;;;;;;;14.00;57.10;;;;;;5117597;28;19988;-47
2022/04/16 11:39:05;;;;;;;;;;;14.10;56.00;;;;;;5117341;28;20392;-48
2022/04/16 11:41:32;;;;;;;;;;;14.00;55.10;;;;;;5117426;28;20319;-48
2022/04/16 11:43:58;;;;;;;;;;;14.00;55.00;;;;;;5117254;28;19976;-47
2022/04/16 11:46:23;;;;;;;;;;;14.20;57.10;;;;;;5117218;28;19927;-48
2022/04/16 11:48:49;;;;;;;;;;;14.20;55.80;;;;;;5117181;28;20266;-48
2022/04/16 11:51:15;;;;;;;;;;;14.30;55.40;;;;;;5116948;28;19936;-47
2022/04/16 11:53:41;;;;;;;;;;;14.20;55.50;;;;;;5115812;28;19931;-48
2022/04/16 11:56:09;;;;;;;;;;;14.10;53.50;;;;;;5116949;28;19924;-47
2022/04/16 11:58:34;;;;;;;;;;;14.30;55.70;;;;;;5115742;28;20441;-47
2022/04/16 12:01:02;;;;;;;;;;;14.40;55.70;;;;;;5116898;28;19923;-48
2022/04/16 12:03:40;;;;;;;;;;;14.60;55.00;;;;;;5116719;28;20015;-47
2022/04/16 12:06:13;;;;;;;;;;;14.60;55.40;;;;;;5116919;28;20290;-48
2022/04/16 12:08:44;;;;;;;;;;;14.70;54.80;;;;;;5116832;28;19930;-47
2022/04/16 12:11:09;;;;;;;;;;;14.80;55.90;;;;;;5116716;28;20065;-47
2022/04/16 12:13:36;;;;;;;;;;;14.80;55.40;;;;;;5116690;28;19967;-51
2022/04/16 12:16:05;;;;;;;;;;;14.70;51.60;;;;;;5116165;28;19924;-48
2022/04/16 12:18:35;;;;;;;;;;;14.70;53.00;;;;;;5116635;28;19930;-49
2022/04/16 12:21:05;;;;;;;;;;;14.90;53.90;;;;;;5116356;28;19984;-48
2022/04/16 12:23:30;;;;;;;;;;;14.90;53.90;;;;;;5098095;28;20322;-49
2022/04/16 12:26:09;;;;;;;;;;;14.60;51.10;;;;;;5116307;28;19924;-48
2022/04/16 12:28:36;;;;;;;;;;;14.70;52.40;;;;;;5116268;28;19930;-48
2022/04/16 12:31:02;;;;;;;;;;;14.80;52.30;;;;;;5115028;28;19924;-48
2022/04/16 12:33:27;;;;;;;;;;;14.80;52.30;;;;;;5114932;28;20345;-48
2022/04/16 12:35:56;;;;;;;;;;;14.70;50.90;;;;;;5115935;28;19945;-49
2022/04/16 12:38:21;;;;;;;;;;;14.80;51.70;;;;;;5116191;28;19924;-48
2022/04/16 12:40:47;;;;;;;;;;;14.90;51.70;;;;;;5116149;28;20297;-48
2022/04/16 12:43:12;;;;;;;;;;;15.00;51.60;;;;;;5115440;28;19931;-50
2022/04/16 12:45:38;;;;;;;;;;;15.10;50.90;;;;;;5114621;28;19930;-49
2022/04/16 12:48:03;;;;;;;;;;;15.00;49.70;;;;;;5116025;28;20393;-47
2022/04/16 12:50:33;;;;;;;;;;;15.10;51.10;;;;;;5116067;28;19924;-48
2022/04/16 12:53:01;;;;;;;;;;;15.20;48.80;;;;;;5115877;28;19984;-49
2022/04/16 12:55:28;;;;;;;;;;;15.20;49.50;;;;;;5115814;28;19928;-48
2022/04/16 12:57:54;;;;;;;;;;;15.20;50.70;;;;;;5115658;28;19931;-48
2022/04/16 13:00:20;;;;;;;;;;;15.10;48.10;;;;;;5115858;27;20294;-48
2022/04/16 13:02:46;;;;;;;;;;;15.10;49.40;;;;;;5115639;28;19924;-49
2022/04/16 13:05:13;;;;;;;;;;;14.90;47.90;;;;;;5115812;28;20002;-48
2022/04/16 13:07:39;;;;;;;;;;;15.10;48.40;;;;;;5115681;28;19931;-47
2022/04/16 13:10:06;;;;;;;;;;;14.80;48.40;;;;;;5115521;28;19924;-47
2022/04/16 13:12:31;;;;;;;;;;;15.30;50.60;;;;;;5115654;28;20062;-48
2022/04/16 13:14:57;;;;;;;;;;;15.50;51.50;;;;;;5115156;28;20058;-48
2022/04/16 13:17:22;;;;;;;;;;;15.20;47.40;;;;;;5115427;28;19930;-48
2022/04/16 13:19:48;;;;;;;;;;;15.40;47.60;;;;;;5115486;28;19930;-48
2022/04/16 13:22:13;;;;;;;;;;;15.30;48.50;;;;;;5115371;28;19924;-48
2022/04/16 13:24:39;;;;;;;;;;;15.30;46.70;;;;;;5115334;28;19986;-49
2022/04/16 13:27:08;;;;;;;;;;;15.30;46.30;;;;;;5115016;28;19934;-48
2022/04/16 13:29:34;;;;;;;;;;;15.40;46.70;;;;;;5115056;28;20381;-49
2022/04/16 13:32:00;;;;;;;;;;;15.60;47.30;;;;;;5115285;27;19927;-48
2022/04/16 13:34:25;;;;;;;;;;;15.40;46.90;;;;;;5115210;27;19931;-48
2022/04/16 13:36:51;;;;;;;;;;;15.50;47.50;;;;;;5115054;28;19924;-48
2022/04/16 13:42:01;;;;;;;;;;;15.50;47.10;;;;;;5115098;28;19985;-48
2022/04/16 13:44:26;;;;;;;;;;;15.40;47.10;;;;;;5114977;28;19927;-48
2022/04/16 13:46:53;;;;;;;;;;;15.60;47.50;;;;;;5114871;28;19924;-48
2022/04/16 13:49:19;;;;;;;;;;;15.60;48.50;;;;;;5114911;28;19969;-47
2022/04/16 13:51:44;;;;;;;;;;;15.70;46.70;;;;;;5115061;28;19931;-47
2022/04/16 13:54:10;;;;;;;;;;;15.60;47.10;;;;;;5114039;28;19927;-49
2022/04/16 13:56:36;;;;;;;;;;;15.50;47.00;;;;;;5114168;28;19923;-48
2022/04/16 13:59:01;;;;;;;;;;;15.60;46.60;;;;;;5114678;28;20018;-48
2022/04/16 14:01:28;;;;;;;;;;;15.90;47.70;;;;;;5114538;28;19959;-49
2022/04/16 14:03:54;;;;;;;;;;;16.00;48.80;;;;;;5114383;28;19945;-49
2022/04/16 14:06:20;;;;;;;;;;;16.30;48.80;;;;;;5114562;28;19923;-47
2022/04/16 14:08:46;;;;;;;;;;;16.00;46.00;;;;;;5114576;28;19928;-48
2022/04/16 14:11:14;;;;;;;;;;;16.30;47.30;;;;;;5114540;28;20381;-49
2022/04/16 14:13:39;;;;;;;;;;;16.40;47.70;;;;;;5113223;28;19930;-50
2022/04/16 14:16:06;;;;;;;;;;;16.30;45.80;;;;;;5112830;28;19923;-48
2022/04/16 14:18:31;;;;;;;;;;;16.00;45.50;;;;;;5114221;28;19923;-48
2022/04/16 14:20:58;;;;;;;;;;;16.10;46.30;;;;;;5114124;28;19930;-48
2022/04/16 14:23:23;;;;;;;;;;;15.90;46.70;;;;;;5114265;28;20016;-49
2022/04/16 14:25:49;;;;;;;;;;;16.30;49.00;;;;;;5113965;28;19924;-48
2022/04/16 14:28:15;;;;;;;;;;;16.20;46.70;;;;;;5114276;28;19923;-48
2022/04/16 14:30:40;;;;;;;;;;;16.50;45.60;;;;;;5113867;28;20389;-48
2022/04/16 14:33:06;;;;;;;;;;;16.40;46.90;;;;;;5114006;28;19931;-49
2022/04/16 14:35:33;;;;;;;;;;;16.30;46.70;;;;;;5113782;28;19924;-48
2022/04/16 14:37:58;;;;;;;;;;;15.90;46.50;;;;;;5113719;28;20384;-48
2022/04/16 14:40:24;;;;;;;;;;;15.90;45.80;;;;;;5113914;28;20006;-48